Time;durP1;ratioP1;P1;durP2;ratioP2;P2;SDS_P1;SDS_P2;PMS_P1;PMS_P2;Temp;Humidity;BMP_temperature;BMP_pressure;BME280_temperature;BME280_humidity;BME280_pressure;Samples;Min_cycle;Max_cycle;Signal;HPM_P1;HPM_P2
2023/03/31 00:01:51;;;;;;;12.83;6.37;;;13.40;97.70;;;;;;4978444;28;20485;-63
2023/03/31 00:04:22;;;;;;;21.73;11.07;;;13.40;97.80;;;;;;4988263;28;20537;-63
2023/03/31 00:06:52;;;;;;;15.73;7.30;;;13.40;97.60;;;;;;4993896;28;21197;-62
2023/03/31 00:09:20;;;;;;;39.90;9.53;;;13.40;97.40;;;;;;4993257;28;20577;-62
2023/03/31 00:11:48;;;;;;;13.63;6.30;;;13.40;97.50;;;;;;4983824;28;20462;-63
2023/03/31 00:14:16;;;;;;;27.20;11.77;;;13.40;97.30;;;;;;4991443;28;20485;-63
2023/03/31 00:16:45;;;;;;;27.90;7.60;;;13.40;97.30;;;;;;4996964;28;20482;-63
2023/03/31 00:19:16;;;;;;;22.03;10.13;;;13.40;97.30;;;;;;4984025;28;20482;-63
2023/03/31 00:21:43;;;;;;;10.37;4.87;;;13.40;97.50;;;;;;4998055;28;20489;-63
2023/03/31 00:24:12;;;;;;;18.80;7.50;;;12.90;97.20;;;;;;4988792;28;20486;-62
2023/03/31 00:26:39;;;;;;;19.57;6.70;;;13.30;97.40;;;;;;4993265;28;21118;-62
2023/03/31 00:29:07;;;;;;;16.33;5.47;;;13.30;97.60;;;;;;4993518;28;20490;-63
2023/03/31 00:31:34;;;;;;;13.60;4.30;;;13.40;97.40;;;;;;4988004;28;20870;-63
2023/03/31 00:34:02;;;;;;;16.37;7.00;;;13.30;97.80;;;;;;5004434;28;20986;-63
2023/03/31 00:36:29;;;;;;;12.37;4.97;;;13.20;97.80;;;;;;4976120;28;20495;-63
2023/03/31 00:38:59;;;;;;;10.23;5.30;;;13.20;97.60;;;;;;4997590;28;20705;-63
2023/03/31 00:41:26;;;;;;;10.60;5.10;;;13.10;98.10;;;;;;4987642;28;20577;-63
2023/03/31 00:44:07;;;;;;;11.00;5.40;;;13.20;98.00;;;;;;4992720;28;20493;-62
2023/03/31 00:46:37;;;;;;;14.53;4.70;;;13.10;98.70;;;;;;4984219;28;20620;-63
2023/03/31 00:49:08;;;;;;;8.60;4.60;;;13.00;97.90;;;;;;4997663;28;20893;-62
2023/03/31 00:51:34;;;;;;;8.93;3.83;;;13.00;98.00;;;;;;4995231;28;20486;-63
2023/03/31 00:54:07;;;;;;;19.70;5.70;;;13.00;98.20;;;;;;5007869;28;20510;-63
2023/03/31 00:56:37;;;;;;;13.00;4.20;;;12.90;98.30;;;;;;4984233;28;20669;-62
2023/03/31 00:59:08;;;;;;;9.70;4.73;;;12.80;98.00;;;;;;5015807;28;20829;-63
2023/03/31 01:01:38;;;;;;;11.13;4.27;;;12.70;98.10;;;;;;5000244;28;20853;-62
2023/03/31 01:04:08;;;;;;;20.30;6.50;;;12.60;99.00;;;;;;5002399;28;20861;-63
2023/03/31 01:06:41;;;;;;;9.27;4.63;;;12.60;98.50;;;;;;4992477;28;20471;-63
2023/03/31 01:09:08;;;;;;;14.23;4.23;;;12.50;99.10;;;;;;5023097;28;20478;-63
2023/03/31 01:11:35;;;;;;;8.23;3.53;;;12.50;99.30;;;;;;4993263;28;20478;-63
2023/03/31 01:14:03;;;;;;;9.30;4.13;;;12.40;99.60;;;;;;4996311;28;20929;-62
2023/03/31 01:16:30;;;;;;;15.97;4.07;;;12.40;99.70;;;;;;4994217;28;20868;-63
2023/03/31 01:18:57;;;;;;;15.30;4.80;;;12.40;99.90;;;;;;4996928;28;20509;-62
2023/03/31 01:22:12;;;;;;;11.67;5.83;;;12.40;99.90;;;;;;4994700;28;20489;-62
2023/03/31 01:25:05;;;;;;;13.67;6.47;;;12.70;99.90;;;;;;4990483;28;20493;-63
2023/03/31 01:28:06;;;;;;;9.87;4.03;;;12.20;99.90;;;;;;4991977;28;21136;-63
2023/03/31 01:30:51;;;;;;;7.77;3.83;;;12.20;99.90;;;;;;4991241;28;20481;-62
2023/03/31 01:34:00;;;;;;;18.73;8.10;;;12.30;99.90;;;;;;4998235;28;20883;-63
2023/03/31 01:37:02;;;;;;;12.00;4.17;;;12.20;99.90;;;;;;5005725;28;20899;-62
2023/03/31 01:39:58;;;;;;;11.80;4.30;;;12.20;99.90;;;;;;4991099;28;20561;-62
2023/03/31 01:42:34;;;;;;;16.20;6.17;;;12.20;99.90;;;;;;4984877;28;20492;-62
2023/03/31 01:45:11;;;;;;;19.73;5.23;;;12.20;99.90;;;;;;5006024;28;20474;-62
2023/03/31 01:47:40;;;;;;;10.03;4.87;;;12.10;99.90;;;;;;5011778;28;20972;-62
2023/03/31 01:50:12;;;;;;;16.23;5.77;;;12.20;99.90;;;;;;4997735;28;20490;-62
2023/03/31 01:52:47;;;;;;;18.60;6.43;;;12.10;99.90;;;;;;4998601;28;20492;-62
2023/03/31 01:55:20;;;;;;;17.57;6.57;;;12.10;99.90;;;;;;4994384;28;20513;-62
2023/03/31 01:57:53;;;;;;;16.37;5.30;;;12.10;99.90;;;;;;4995794;28;20934;-63
2023/03/31 02:00:25;;;;;;;22.07;8.73;;;12.10;99.90;;;;;;4990765;28;20485;-62
2023/03/31 02:02:58;;;;;;;12.07;4.10;;;12.10;99.90;;;;;;5004256;28;20545;-62
2023/03/31 02:05:27;;;;;;;14.60;6.73;;;12.10;99.90;;;;;;4994517;28;20920;-62
2023/03/31 02:07:58;;;;;;;11.97;5.63;;;12.00;99.90;;;;;;4996248;28;20485;-62
2023/03/31 02:10:29;;;;;;;26.43;8.17;;;11.90;99.90;;;;;;4999057;28;20493;-62
2023/03/31 02:13:00;;;;;;;22.50;5.30;;;11.90;99.90;;;;;;4994688;28;20478;-63
2023/03/31 02:15:30;;;;;;;17.17;5.57;;;11.80;99.90;;;;;;4994145;28;20468;-62
2023/03/31 02:17:59;;;;;;;15.70;6.50;;;11.80;99.90;;;;;;4999278;28;20571;-63
2023/03/31 02:20:28;;;;;;;19.30;8.67;;;11.70;99.90;;;;;;5014789;28;20494;-62
2023/03/31 02:22:57;;;;;;;16.20;5.70;;;11.70;99.90;;;;;;4992994;28;21092;-63
2023/03/31 02:25:29;;;;;;;23.43;7.20;;;11.60;99.90;;;;;;4992760;28;20478;-62
2023/03/31 02:28:02;;;;;;;19.20;5.30;;;11.60;99.90;;;;;;4998510;28;20478;-62
2023/03/31 02:30:35;;;;;;;15.40;6.33;;;11.90;99.90;;;;;;4996263;28;20472;-62
2023/03/31 02:33:03;;;;;;;23.40;7.30;;;11.50;99.90;;;;;;4992794;28;20485;-62
2023/03/31 02:35:30;;;;;;;17.47;5.67;;;11.50;99.90;;;;;;4999680;28;20482;-62
2023/03/31 02:37:58;;;;;;;17.03;6.30;;;11.50;99.90;;;;;;5012408;28;21025;-62
2023/03/31 02:40:27;;;;;;;32.03;8.90;;;11.40;99.90;;;;;;4997179;28;20490;-62
2023/03/31 02:42:54;;;;;;;25.47;6.73;;;11.40;99.90;;;;;;4991316;28;20492;-62
2023/03/31 02:45:42;;;;;;;34.93;10.33;;;11.40;99.90;;;;;;4994514;28;20525;-62
2023/03/31 02:48:12;;;;;;;23.13;6.20;;;11.50;99.90;;;;;;4984789;28;20486;-62
2023/03/31 02:51:00;;;;;;;24.70;7.13;;;11.40;99.90;;;;;;5002563;28;20508;-63
2023/03/31 02:53:38;;;;;;;19.00;5.93;;;11.40;99.90;;;;;;5002899;28;20486;-62
2023/03/31 02:56:25;;;;;;;25.03;6.93;;;11.40;99.90;;;;;;5011904;28;21061;-62
2023/03/31 02:59:11;;;;;;;15.57;5.10;;;11.30;99.90;;;;;;5010135;28;20790;-63
2023/03/31 03:01:50;;;;;;;24.80;5.03;;;11.20;99.90;;;;;;5006691;28;20832;-63
2023/03/31 03:04:33;;;;;;;33.67;10.40;;;11.20;99.90;;;;;;4982741;28;21005;-62
2023/03/31 03:07:08;;;;;;;17.43;5.83;;;11.20;99.90;;;;;;4975919;28;20652;-62
2023/03/31 03:09:46;;;;;;;21.10;4.83;;;11.20;99.90;;;;;;4975509;28;20487;-62
2023/03/31 03:12:21;;;;;;;30.23;6.70;;;11.20;99.90;;;;;;4996884;28;20486;-62
2023/03/31 03:14:53;;;;;;;21.73;5.90;;;11.30;99.90;;;;;;4985856;28;20480;-62
2023/03/31 03:17:25;;;;;;;39.87;9.83;;;11.30;99.90;;;;;;5001226;28;20496;-62
2023/03/31 03:19:55;;;;;;;18.30;5.00;;;11.30;99.90;;;;;;4989839;28;20895;-62
2023/03/31 03:22:22;;;;;;;33.73;10.83;;;11.20;99.90;;;;;;4994623;28;20584;-62
2023/03/31 03:24:48;;;;;;;18.50;5.13;;;11.20;99.90;;;;;;4989229;28;20834;-62
2023/03/31 03:27:15;;;;;;;28.87;10.00;;;11.20;99.90;;;;;;5017810;28;20482;-63
2023/03/31 03:29:42;;;;;;;12.13;4.53;;;11.20;99.90;;;;;;4997088;28;21268;-62
2023/03/31 03:32:09;;;;;;;34.07;9.47;;;11.30;99.90;;;;;;5001342;28;20486;-62
2023/03/31 03:34:38;;;;;;;23.97;6.57;;;11.40;99.90;;;;;;5001029;28;20490;-62
2023/03/31 03:37:05;;;;;;;19.00;6.07;;;11.30;99.90;;;;;;5002036;28;20545;-62
2023/03/31 03:39:32;;;;;;;14.10;4.47;;;11.60;99.90;;;;;;5000835;28;20572;-62
2023/03/31 03:41:58;;;;;;;14.70;5.73;;;11.70;99.90;;;;;;5026665;28;20482;-62
2023/03/31 03:44:25;;;;;;;17.80;6.97;;;11.70;99.90;;;;;;4997286;28;20505;-62
2023/03/31 03:46:52;;;;;;;17.67;5.37;;;11.70;99.90;;;;;;4998491;28;20482;-62
2023/03/31 03:49:19;;;;;;;31.37;8.70;;;11.60;99.90;;;;;;4999042;28;20490;-63
2023/03/31 03:51:47;;;;;;;16.60;6.30;;;11.60;99.90;;;;;;4997638;28;20567;-62
2023/03/31 03:54:14;;;;;;;35.33;10.67;;;11.60;99.90;;;;;;4997401;28;20482;-62
2023/03/31 03:56:40;;;;;;;23.63;6.87;;;11.60;99.90;;;;;;4998574;28;21006;-62
2023/03/31 03:59:07;;;;;;;22.40;7.60;;;11.60;99.90;;;;;;4999318;28;20489;-62
2023/03/31 04:01:34;;;;;;;23.73;5.80;;;11.40;99.90;;;;;;4999936;28;20478;-63
2023/03/31 04:04:01;;;;;;;17.03;6.20;;;11.40;99.90;;;;;;4999272;28;20815;-63
2023/03/31 04:06:28;;;;;;;11.60;4.70;;;11.30;99.90;;;;;;4996594;28;20482;-63
2023/03/31 04:08:56;;;;;;;21.23;5.90;;;11.30;99.90;;;;;;5012595;28;20476;-63
2023/03/31 04:11:23;;;;;;;24.43;9.13;;;11.20;99.90;;;;;;5003984;28;21021;-63
2023/03/31 04:13:50;;;;;;;21.33;7.90;;;11.10;99.90;;;;;;4999434;28;20533;-63
2023/03/31 04:16:16;;;;;;;38.93;12.93;;;11.10;99.90;;;;;;4997409;28;20865;-63
2023/03/31 04:18:44;;;;;;;17.87;8.43;;;11.10;99.90;;;;;;5000655;28;20509;-62
2023/03/31 04:21:14;;;;;;;35.33;12.30;;;11.20;99.90;;;;;;4998816;28;20955;-62
2023/03/31 04:23:45;;;;;;;17.10;6.70;;;11.30;99.90;;;;;;5005015;28;20594;-63
2023/03/31 04:26:14;;;;;;;25.33;9.43;;;11.30;99.90;;;;;;5008277;28;20565;-62
2023/03/31 04:28:41;;;;;;;30.80;10.13;;;11.20;99.90;;;;;;4996542;28;20485;-63
2023/03/31 04:31:15;;;;;;;21.40;9.00;;;11.20;99.90;;;;;;4996410;28;20482;-62
2023/03/31 04:33:45;;;;;;;16.60;7.50;;;11.30;99.90;;;;;;4995234;28;20473;-63
2023/03/31 04:36:16;;;;;;;22.50;8.87;;;9.90;99.90;;;;;;5021680;28;20970;-63
2023/03/31 04:38:45;;;;;;;20.33;8.13;;;11.40;99.90;;;;;;5017637;28;21019;-63
2023/03/31 04:41:14;;;;;;;30.80;10.73;;;11.40;99.90;;;;;;4999776;28;20504;-63
2023/03/31 04:43:41;;;;;;;20.13;10.00;;;11.40;99.90;;;;;;5000186;28;20499;-63
2023/03/31 04:46:07;;;;;;;22.23;9.87;;;11.40;99.90;;;;;;5006162;28;20486;-62
2023/03/31 04:48:34;;;;;;;17.47;7.43;;;11.20;99.90;;;;;;4997795;28;21018;-63
2023/03/31 04:51:01;;;;;;;27.90;11.93;;;11.30;99.90;;;;;;4998184;28;20470;-63
2023/03/31 04:53:28;;;;;;;24.83;9.20;;;14.10;99.90;;;;;;5002897;28;20481;-62
2023/03/31 04:55:55;;;;;;;23.67;8.77;;;11.30;99.90;;;;;;5011194;28;20552;-62
2023/03/31 04:58:23;;;;;;;26.17;11.77;;;11.20;99.90;;;;;;5017160;28;20473;-63
2023/03/31 05:00:50;;;;;;;22.17;10.20;;;11.20;99.90;;;;;;4993645;28;20500;-63
2023/03/31 05:03:16;;;;;;;48.93;16.20;;;11.20;99.90;;;;;;4999645;28;20496;-63
2023/03/31 05:05:43;;;;;;;26.30;12.13;;;11.10;99.90;;;;;;4996870;28;21005;-62
2023/03/31 05:08:10;;;;;;;31.27;14.10;;;11.10;99.90;;;;;;5007137;28;20507;-63
2023/03/31 05:10:37;;;;;;;21.30;10.00;;;11.20;99.90;;;;;;5001191;28;20474;-62
2023/03/31 05:13:04;;;;;;;17.33;8.60;;;11.20;99.90;;;;;;4999534;28;20486;-62
2023/03/31 05:15:32;;;;;;;12.00;7.13;;;11.20;99.90;;;;;;4998350;28;20486;-62
2023/03/31 05:17:58;;;;;;;20.97;9.90;;;11.20;99.90;;;;;;4991587;28;20467;-62
2023/03/31 05:20:25;;;;;;;28.07;12.70;;;11.20;99.90;;;;;;5009364;28;20591;-63
2023/03/31 05:22:52;;;;;;;23.03;11.83;;;11.30;99.90;;;;;;5017167;28;20500;-62
2023/03/31 05:25:18;;;;;;;33.20;13.73;;;11.10;99.90;;;;;;4995514;28;20493;-63
2023/03/31 05:27:46;;;;;;;19.73;9.00;;;11.10;99.90;;;;;;5003918;28;20480;-62
2023/03/31 05:30:13;;;;;;;37.13;15.13;;;11.10;99.90;;;;;;5007004;28;21009;-62
2023/03/31 05:32:42;;;;;;;29.33;11.40;;;11.10;99.90;;;;;;4996016;28;21015;-62
2023/03/31 05:35:09;;;;;;;17.13;10.70;;;11.10;99.90;;;;;;4987390;28;20570;-62
2023/03/31 05:37:36;;;;;;;18.77;9.37;;;11.10;99.90;;;;;;5023751;28;21342;-62
2023/03/31 05:40:04;;;;;;;19.40;10.37;;;11.20;99.90;;;;;;4997302;28;20501;-62
2023/03/31 05:42:31;;;;;;;20.43;9.83;;;11.10;99.90;;;;;;4989207;28;20481;-62
2023/03/31 05:44:58;;;;;;;21.50;9.27;;;11.20;99.90;;;;;;4996867;28;20869;-63
2023/03/31 05:47:25;;;;;;;23.97;10.67;;;11.20;99.90;;;;;;4992382;28;20489;-62
2023/03/31 05:49:53;;;;;;;24.43;11.93;;;11.30;99.90;;;;;;5014855;28;20473;-62
2023/03/31 05:52:19;;;;;;;34.40;13.97;;;11.40;99.90;;;;;;4997925;28;20657;-62
2023/03/31 05:54:46;;;;;;;26.10;7.87;;;11.50;99.90;;;;;;4994384;28;20485;-62
2023/03/31 05:57:13;;;;;;;32.97;15.10;;;11.60;99.90;;;;;;4994591;28;20491;-62
2023/03/31 05:59:41;;;;;;;16.60;8.53;;;11.60;99.90;;;;;;5017507;28;20493;-62
2023/03/31 06:02:08;;;;;;;34.30;12.40;;;11.50;99.90;;;;;;4995135;28;20990;-62
2023/03/31 06:04:35;;;;;;;20.10;10.23;;;11.60;99.90;;;;;;4997021;28;20478;-62
2023/03/31 06:07:04;;;;;;;20.10;12.37;;;11.70;99.90;;;;;;4996199;28;20536;-63
2023/03/31 06:09:31;;;;;;;19.73;11.53;;;11.70;99.90;;;;;;4998289;28;20482;-63
2023/03/31 06:11:57;;;;;;;21.77;7.80;;;11.80;99.90;;;;;;4990505;28;21034;-62
2023/03/31 06:14:24;;;;;;;26.50;13.63;;;11.90;99.90;;;;;;4993030;28;20985;-63
2023/03/31 06:16:51;;;;;;;18.17;9.50;;;11.80;99.90;;;;;;4986670;28;20490;-63
2023/03/31 06:19:18;;;;;;;38.13;17.23;;;11.90;99.90;;;;;;5013384;28;20487;-62
2023/03/31 06:21:44;;;;;;;21.87;11.10;;;11.90;99.90;;;;;;4997487;28;20489;-63
2023/03/31 06:24:12;;;;;;;16.47;7.97;;;12.00;99.90;;;;;;4999219;28;20487;-62
2023/03/31 06:26:39;;;;;;;27.93;11.33;;;12.00;99.90;;;;;;4991533;28;20704;-63
2023/03/31 06:29:06;;;;;;;13.13;7.07;;;12.10;99.90;;;;;;5010992;28;20516;-62
2023/03/31 06:31:32;;;;;;;15.20;8.23;;;12.20;99.90;;;;;;5016873;28;20477;-63
2023/03/31 06:33:59;;;;;;;24.87;12.60;;;12.10;99.90;;;;;;5009213;28;20484;-63
2023/03/31 06:36:26;;;;;;;23.47;13.33;;;12.20;99.90;;;;;;5012481;28;20512;-63
2023/03/31 06:38:54;;;;;;;29.60;7.90;;;12.10;99.90;;;;;;5015368;28;20497;-63
2023/03/31 06:41:22;;;;;;;26.63;12.37;;;12.10;99.90;;;;;;5014619;28;20592;-62
2023/03/31 06:43:48;;;;;;;14.63;7.30;;;12.00;99.90;;;;;;5019740;28;20477;-62
2023/03/31 06:46:15;;;;;;;22.47;11.60;;;12.10;99.90;;;;;;5017933;28;20473;-63
2023/03/31 06:48:42;;;;;;;19.70;10.30;;;12.10;99.90;;;;;;5019034;28;20686;-61
2023/03/31 06:51:09;;;;;;;21.43;8.83;;;12.00;99.90;;;;;;5019069;28;20476;-63
2023/03/31 06:53:36;;;;;;;19.20;9.77;;;12.10;99.90;;;;;;5017641;28;20503;-63
2023/03/31 06:56:04;;;;;;;21.13;8.63;;;12.10;99.90;;;;;;5018638;28;20506;-63
2023/03/31 06:58:33;;;;;;;21.67;8.77;;;12.10;99.90;;;;;;5018386;28;20484;-62
2023/03/31 07:01:02;;;;;;;24.83;11.37;;;12.00;99.90;;;;;;5018334;28;20492;-63
2023/03/31 07:03:29;;;;;;;19.80;7.37;;;12.20;99.90;;;;;;5025510;28;20507;-63
2023/03/31 07:05:56;;;;;;;19.30;8.77;;;12.70;99.90;;;;;;5020025;28;20500;-62
2023/03/31 07:08:23;;;;;;;29.83;12.90;;;13.10;99.90;;;;;;5017586;28;20489;-63
2023/03/31 07:10:54;;;;;;;18.27;10.17;;;13.30;99.90;;;;;;4998771;28;20489;-63
2023/03/31 07:13:21;;;;;;;31.83;14.23;;;13.30;99.90;;;;;;5014015;28;20972;-64
2023/03/31 07:15:49;;;;;;;11.07;4.77;;;13.30;99.90;;;;;;5002930;28;20495;-62
2023/03/31 07:18:17;;;;;;;27.53;11.43;;;13.30;99.90;;;;;;5013326;28;20489;-63
2023/03/31 07:20:47;;;;;;;21.27;9.50;;;13.10;99.90;;;;;;5003756;28;20473;-63
2023/03/31 07:23:14;;;;;;;27.40;11.47;;;13.10;99.90;;;;;;5015469;28;20484;-63
2023/03/31 07:25:40;;;;;;;16.37;6.57;;;12.90;99.90;;;;;;5007503;28;20476;-62
2023/03/31 07:28:07;;;;;;;14.20;7.20;;;12.90;99.90;;;;;;5030335;28;21017;-62
2023/03/31 07:30:34;;;;;;;21.57;11.30;;;13.10;99.90;;;;;;5014946;28;20484;-64
2023/03/31 07:33:02;;;;;;;26.00;9.83;;;13.40;99.90;;;;;;5003893;28;20497;-62
2023/03/31 07:35:29;;;;;;;17.47;8.80;;;13.50;99.90;;;;;;5004835;28;20476;-63
2023/03/31 07:37:56;;;;;;;22.43;9.27;;;13.60;99.90;;;;;;5008360;28;20811;-63
2023/03/31 07:40:25;;;;;;;23.27;12.60;;;13.80;99.90;;;;;;5006029;28;20484;-63
2023/03/31 07:42:52;;;;;;;21.27;9.00;;;14.10;99.90;;;;;;5006579;28;20522;-63
2023/03/31 07:45:19;;;;;;;24.40;13.43;;;14.20;99.90;;;;;;5006594;28;21259;-63
2023/03/31 07:47:47;;;;;;;15.27;8.40;;;14.10;99.90;;;;;;5000386;28;20492;-63
2023/03/31 07:50:16;;;;;;;26.03;12.80;;;14.20;99.90;;;;;;4990286;28;20508;-63
2023/03/31 07:52:43;;;;;;;13.60;8.33;;;14.30;99.90;;;;;;4971130;28;20544;-63
2023/03/31 07:55:10;;;;;;;33.07;12.40;;;13.90;99.90;;;;;;4987743;28;20482;-63
2023/03/31 07:57:39;;;;;;;33.10;8.93;;;13.80;99.90;;;;;;5012417;28;20843;-63
2023/03/31 08:00:09;;;;;;;19.77;8.17;;;13.40;99.90;;;;;;5004311;28;21357;-63
2023/03/31 08:02:36;;;;;;;26.13;8.50;;;13.30;99.90;;;;;;4994242;28;20886;-63
2023/03/31 08:05:03;;;;;;;16.07;6.73;;;13.00;99.90;;;;;;4994125;28;20489;-63
2023/03/31 08:07:33;;;;;;;33.97;9.60;;;12.90;99.90;;;;;;4988630;28;20549;-63
2023/03/31 08:10:00;;;;;;;27.73;10.20;;;12.70;99.90;;;;;;5005076;28;20474;-63
2023/03/31 08:12:27;;;;;;;23.00;8.47;;;12.40;99.90;;;;;;4998153;28;20609;-62
2023/03/31 08:14:53;;;;;;;20.97;9.03;;;12.20;99.90;;;;;;4989311;28;20481;-63
2023/03/31 08:17:20;;;;;;;39.67;13.33;;;12.00;99.90;;;;;;5019890;28;20491;-63
2023/03/31 08:19:47;;;;;;;17.90;5.93;;;12.00;99.90;;;;;;4990551;28;20482;-62
2023/03/31 08:22:13;;;;;;;20.43;7.93;;;12.10;99.90;;;;;;4988653;28;20474;-62
2023/03/31 08:24:41;;;;;;;24.97;9.10;;;12.10;99.90;;;;;;4989806;28;21148;-63
2023/03/31 08:27:08;;;;;;;16.20;4.90;;;12.10;99.90;;;;;;4988551;28;20486;-62
2023/03/31 08:29:35;;;;;;;15.93;6.07;;;12.10;99.90;;;;;;4987114;28;20499;-62
2023/03/31 08:32:01;;;;;;;24.03;7.40;;;12.10;99.90;;;;;;4988830;28;20983;-62
2023/03/31 08:34:28;;;;;;;26.67;8.17;;;12.10;99.90;;;;;;5000380;28;20499;-63
2023/03/31 08:36:55;;;;;;;22.60;7.93;;;12.10;99.90;;;;;;4984445;28;21198;-63
2023/03/31 08:39:22;;;;;;;30.20;10.87;;;12.30;99.90;;;;;;5012506;28;20869;-63
2023/03/31 08:41:56;;;;;;;25.73;7.53;;;12.60;99.90;;;;;;4991227;28;20493;-62
2023/03/31 08:44:30;;;;;;;43.30;11.00;;;12.70;99.90;;;;;;4986615;28;20856;-63
2023/03/31 08:46:58;;;;;;;18.23;7.77;;;12.80;99.90;;;;;;4999469;28;21129;-63
2023/03/31 08:49:28;;;;;;;33.23;11.10;;;13.00;99.90;;;;;;4986737;28;20474;-63
2023/03/31 08:51:59;;;;;;;26.67;9.43;;;13.20;99.90;;;;;;4960982;28;20496;-62
2023/03/31 08:54:32;;;;;;;22.40;6.63;;;13.40;99.90;;;;;;4954639;28;20494;-62
2023/03/31 08:57:02;;;;;;;17.90;6.30;;;13.50;99.90;;;;;;4971722;28;20484;-61
2023/03/31 08:59:31;;;;;;;17.00;5.77;;;13.80;99.90;;;;;;5010243;28;20484;-63
2023/03/31 09:02:05;;;;;;;15.37;6.20;;;13.90;99.90;;;;;;4991046;28;20490;-63
2023/03/31 09:04:50;;;;;;;19.37;9.10;;;14.00;99.90;;;;;;5006631;28;20485;-63
2023/03/31 09:07:26;;;;;;;40.07;12.63;;;14.10;99.90;;;;;;5028876;28;20688;-62
2023/03/31 09:09:58;;;;;;;28.00;7.73;;;;;;;;;;4991661;28;21136;-62
2023/03/31 09:12:37;;;;;;;37.50;10.37;;;14.10;99.90;;;;;;5009145;28;20841;-63
2023/03/31 09:15:10;;;;;;;19.20;6.03;;;13.90;99.90;;;;;;4995394;28;20529;-63
2023/03/31 09:17:43;;;;;;;21.63;6.50;;;13.80;99.90;;;;;;5015091;28;20519;-63
2023/03/31 09:20:15;;;;;;;27.60;9.03;;;14.00;99.90;;;;;;4987288;28;20488;-62
2023/03/31 09:22:46;;;;;;;22.57;7.73;;;13.80;99.90;;;;;;5014371;28;20538;-63
2023/03/31 09:25:16;;;;;;;47.97;11.67;;;13.80;99.90;;;;;;5003420;28;20481;-62
2023/03/31 09:27:46;;;;;;;32.93;8.40;;;13.50;99.90;;;;;;5006014;28;20605;-62
2023/03/31 09:30:17;;;;;;;46.13;10.00;;;13.60;99.90;;;;;;4998204;28;20491;-62
2023/03/31 09:32:45;;;;;;;33.10;8.93;;;13.60;99.90;;;;;;4996638;28;20557;-63
2023/03/31 09:35:20;;;;;;;35.17;8.47;;;13.80;99.90;;;;;;4995058;28;20470;-63
2023/03/31 09:37:47;;;;;;;33.53;8.70;;;13.90;99.90;;;;;;5008731;28;20483;-62
2023/03/31 09:40:17;;;;;;;51.83;13.40;;;13.90;99.90;;;;;;5018553;28;20484;-63
2023/03/31 09:42:46;;;;;;;30.77;7.57;;;14.10;99.90;;;;;;5004699;28;20474;-63
2023/03/31 09:45:17;;;;;;;51.77;12.13;;;14.20;99.90;;;;;;4989110;28;20567;-62
2023/03/31 09:47:46;;;;;;;60.20;10.37;;;;;;;;;;4987950;28;20486;-63
2023/03/31 09:50:14;;;;;;;70.30;12.03;;;;;;;;;;4991085;28;20474;-62
2023/03/31 09:52:43;;;;;;;37.70;8.70;;;14.20;99.90;;;;;;4990284;28;20486;-63
2023/03/31 09:55:20;;;;;;;132.57;15.77;;;13.70;99.90;;;;;;4982649;28;20474;-63
2023/03/31 09:57:48;;;;;;;26.57;7.90;;;13.80;99.90;;;;;;4990188;28;20485;-62
2023/03/31 10:00:17;;;;;;;30.30;8.77;;;13.60;99.90;;;;;;5007381;28;20487;-63
2023/03/31 10:02:48;;;;;;;23.70;7.27;;;13.60;99.90;;;;;;5015758;28;20794;-63
2023/03/31 10:05:27;;;;;;;39.13;10.77;;;13.80;99.90;;;;;;5006145;28;20477;-63
2023/03/31 10:08:10;;;;;;;23.53;6.00;;;14.10;99.90;;;;;;5006638;28;20469;-63
2023/03/31 10:10:37;;;;;;;23.97;8.50;;;14.30;99.90;;;;;;4991701;28;20907;-63
2023/03/31 10:13:09;;;;;;;26.77;5.43;;;14.20;99.90;;;;;;4994852;28;20492;-63
2023/03/31 10:15:38;;;;;;;15.40;5.90;;;14.00;99.90;;;;;;5013836;28;21095;-63
2023/03/31 10:18:04;;;;;;;14.00;5.00;;;14.20;99.90;;;;;;4999695;28;20528;-63
2023/03/31 10:20:34;;;;;;;27.03;7.90;;;14.10;99.90;;;;;;5025415;28;21136;-63
2023/03/31 10:23:06;;;;;;;17.47;5.90;;;14.20;99.90;;;;;;5010286;28;21238;-62
2023/03/31 10:25:34;;;;;;;18.07;6.00;;;;;;;;;;5008776;28;20485;-63
2023/03/31 10:28:03;;;;;;;17.43;6.60;;;14.60;99.90;;;;;;5007179;28;20568;-62
2023/03/31 10:30:36;;;;;;;12.53;6.33;;;14.70;99.90;;;;;;4995754;28;20662;-63
2023/03/31 10:33:07;;;;;;;12.83;4.27;;;14.70;99.90;;;;;;5007157;28;20613;-63
2023/03/31 10:35:36;;;;;;;21.33;7.93;;;14.70;99.90;;;;;;5025629;28;20827;-63
2023/03/31 10:38:06;;;;;;;20.23;5.63;;;14.50;99.50;;;;;;5030510;28;20762;-63
2023/03/31 10:40:35;;;;;;;21.20;8.97;;;14.50;99.90;;;;;;5019314;28;20702;-63
2023/03/31 10:43:06;;;;;;;13.23;5.50;;;14.40;99.90;;;;;;5024734;28;20571;-62
2023/03/31 10:45:42;;;;;;;20.27;8.17;;;13.90;99.40;;;;;;5010934;28;20480;-63
2023/03/31 10:48:18;;;;;;;21.93;7.23;;;13.70;99.50;;;;;;5014587;28;20475;-63
2023/03/31 10:50:45;;;;;;;21.53;7.90;;;13.80;99.50;;;;;;4994543;28;20480;-63
2023/03/31 10:53:14;;;;;;;21.50;7.70;;;13.60;99.80;;;;;;4995335;28;20512;-63
2023/03/31 10:55:52;;;;;;;17.30;7.57;;;13.50;99.50;;;;;;4988587;28;20478;-63
2023/03/31 10:58:34;;;;;;;19.33;6.63;;;13.40;99.40;;;;;;4982356;28;20496;-63
2023/03/31 11:01:15;;;;;;;13.63;5.17;;;13.50;99.80;;;;;;5011144;28;20615;-62
2023/03/31 11:04:18;;;;;;;14.87;6.63;;;13.60;99.90;;;;;;4997036;28;20490;-63
2023/03/31 11:06:55;;;;;;;15.60;5.67;;;13.50;99.40;;;;;;5001651;28;20480;-62
2023/03/31 11:09:35;;;;;;;18.40;9.20;;;13.50;99.80;;;;;;5026231;28;20478;-62
2023/03/31 11:12:08;;;;;;;9.63;3.40;;;13.50;99.90;;;;;;5014347;28;20969;-62
2023/03/31 11:14:46;;;;;;;17.57;7.03;;;13.30;99.90;;;;;;5025900;28;20476;-63
2023/03/31 11:17:30;;;;;;;19.07;7.00;;;13.20;99.90;;;;;;5012845;28;20476;-63
2023/03/31 11:20:09;;;;;;;10.60;5.63;;;13.00;98.70;;;;;;5026888;28;20485;-63
2023/03/31 11:22:44;;;;;;;9.67;4.70;;;12.70;98.80;;;;;;5016255;28;20689;-62
2023/03/31 11:25:28;;;;;;;12.77;5.87;;;12.50;99.30;;;;;;5024431;28;20561;-62
2023/03/31 11:28:19;;;;;;;13.10;6.67;;;12.40;99.90;;;;;;5017853;28;20567;-63
2023/03/31 11:30:50;;;;;;;15.67;6.97;;;12.10;99.90;;;;;;5018420;28;20487;-63
2023/03/31 11:33:34;;;;;;;21.73;9.47;;;12.00;99.90;;;;;;5037201;28;20973;-62
2023/03/31 11:36:11;;;;;;;16.80;5.47;;;11.90;99.90;;;;;;5025374;28;20484;-62
2023/03/31 11:38:52;;;;;;;14.83;5.40;;;12.40;99.90;;;;;;4997424;28;20481;-62
2023/03/31 11:41:21;;;;;;;39.63;8.70;;;11.90;99.90;;;;;;5006946;28;20494;-62
2023/03/31 11:43:50;;;;;;;20.57;7.20;;;11.40;99.90;;;;;;4994581;28;20486;-61
2023/03/31 11:46:22;;;;;;;18.13;8.90;;;11.90;99.90;;;;;;4989322;28;21053;-62
2023/03/31 11:48:56;;;;;;;17.90;5.87;;;12.00;99.90;;;;;;4993060;28;20485;-62
2023/03/31 11:51:26;;;;;;;22.47;9.00;;;12.10;99.90;;;;;;4992367;28;20885;-62
2023/03/31 11:53:56;;;;;;;13.10;5.80;;;12.30;99.90;;;;;;5005575;28;20485;-62
2023/03/31 11:56:25;;;;;;;15.47;7.20;;;12.20;99.90;;;;;;4998656;28;20484;-62
2023/03/31 11:58:55;;;;;;;14.53;6.77;;;12.20;99.90;;;;;;5000145;28;20480;-62
2023/03/31 12:01:25;;;;;;;20.13;6.80;;;12.40;99.90;;;;;;5027673;28;20572;-62
2023/03/31 12:04:00;;;;;;;13.87;5.67;;;12.70;99.90;;;;;;5027650;28;20477;-62
2023/03/31 12:06:31;;;;;;;13.47;7.27;;;12.80;99.90;;;;;;5024652;28;20487;-62
2023/03/31 12:09:07;;;;;;;10.30;5.83;;;13.60;99.90;;;;;;5030429;28;20472;-62
2023/03/31 12:11:40;;;;;;;14.70;7.00;;;13.00;99.90;;;;;;5025042;28;20491;-62
2023/03/31 12:14:16;;;;;;;6.37;3.57;;;13.30;99.90;;;;;;5029759;28;20986;-63
2023/03/31 12:16:46;;;;;;;12.13;6.67;;;13.50;99.90;;;;;;5018100;28;20463;-62
2023/03/31 12:19:21;;;;;;;14.73;3.73;;;13.70;99.90;;;;;;5030370;28;20473;-62
2023/03/31 12:21:51;;;;;;;17.70;7.27;;;14.00;99.90;;;;;;4991629;28;20591;-64
2023/03/31 12:24:18;;;;;;;29.47;9.63;;;14.00;99.90;;;;;;5024519;28;20553;-63
2023/03/31 12:26:56;;;;;;;13.40;6.73;;;14.20;99.90;;;;;;5010631;28;20501;-63
2023/03/31 12:29:29;;;;;;;27.73;11.07;;;14.30;99.90;;;;;;5013628;28;20919;-62
2023/03/31 12:31:58;;;;;;;13.00;6.60;;;14.40;99.90;;;;;;5002699;28;21275;-62
2023/03/31 12:34:28;;;;;;;16.63;7.73;;;14.40;99.90;;;;;;4998542;28;20493;-63
2023/03/31 12:37:17;;;;;;;11.13;6.27;;;14.80;99.90;;;;;;4993756;28;20482;-63
2023/03/31 12:39:53;;;;;;;13.07;5.77;;;14.90;99.90;;;;;;5020980;28;20468;-63
2023/03/31 12:42:59;;;;;;;19.97;6.60;;;15.20;99.90;;;;;;5028754;28;20475;-62
2023/03/31 12:45:28;;;;;;;22.60;6.87;;;14.80;99.40;;;;;;5001792;28;21759;-63
2023/03/31 12:48:19;;;;;;;20.63;8.30;;;14.90;99.90;;;;;;5017854;28;20464;-62
2023/03/31 12:51:01;;;;;;;24.73;7.80;;;14.90;99.90;;;;;;5021300;28;20472;-62
2023/03/31 12:53:35;;;;;;;13.63;6.27;;;15.00;99.90;;;;;;5021344;28;20983;-63
2023/03/31 12:56:02;;;;;;;15.13;5.07;;;15.00;99.90;;;;;;5029835;28;20487;-64